Time;durP1;ratioP1;P1;durP2;ratioP2;P2;SDS_P1;SDS_P2;PMS_P1;PMS_P2;Temp;Humidity;BMP_temperature;BMP_pressure;BME280_temperature;BME280_humidity;BME280_pressure;Samples;Min_cycle;Max_cycle;Signal;HPM_P1;HPM_P2
2022/07/17 00:00:49;;;;;;;4.38;3.92;;;;;;;19.46;54.27;99454.91;4922155;28;104121;-60
2022/07/17 00:03:19;;;;;;;3.60;3.30;;;;;;;19.46;54.68;99453.06;4934993;28;102707;-60
2022/07/17 00:05:49;;;;;;;3.67;3.30;;;;;;;19.51;54.20;99461.50;4937834;28;104372;-60
2022/07/17 00:08:17;;;;;;;4.20;3.78;;;;;;;19.42;54.58;99462.41;4935543;28;103610;-61
2022/07/17 00:10:46;;;;;;;4.10;3.70;;;;;;;19.48;54.70;99455.63;4934374;28;104422;-60
2022/07/17 00:13:17;;;;;;;3.42;3.13;;;;;;;19.54;54.34;99455.00;4917430;28;103015;-61
2022/07/17 00:15:45;;;;;;;4.17;3.77;;;;;;;19.47;54.66;99452.09;4919340;28;104063;-60
2022/07/17 00:18:16;;;;;;;4.30;3.78;;;;;;;19.43;54.87;99457.88;4934307;28;103255;-60
2022/07/17 00:20:47;;;;;;;3.15;2.90;;;;;;;19.43;54.26;99452.53;4917514;28;102961;-60
2022/07/17 00:23:18;;;;;;;3.30;3.00;;;;;;;19.50;53.82;99449.13;4933961;28;102848;-60
2022/07/17 00:25:46;;;;;;;3.63;3.30;;;;;;;19.50;53.73;99450.94;4935939;28;102723;-60
2022/07/17 00:28:14;;;;;;;3.38;3.08;;;;;;;19.48;54.17;99451.09;4920092;28;104589;-61
2022/07/17 00:30:43;;;;;;;4.22;3.53;;;;;;;19.40;55.05;99447.47;4933208;28;103345;-61
2022/07/17 00:33:11;;;;;;;3.22;2.92;;;;;;;19.40;54.68;99444.78;4935483;28;103039;-61
2022/07/17 00:35:39;;;;;;;4.00;3.60;;;;;;;19.42;54.02;99449.03;4918570;28;103822;-61
2022/07/17 00:38:10;;;;;;;4.43;3.47;;;;;;;19.33;54.74;99451.69;4938296;28;104029;-61
2022/07/17 00:40:38;;;;;;;3.65;3.00;;;;;;;19.32;54.71;99448.19;4940238;28;103190;-61
2022/07/17 00:43:08;;;;;;;5.72;3.72;;;;;;;18.91;55.92;99451.31;4939011;28;102980;-59
2022/07/17 00:45:36;;;;;;;3.63;3.00;;;;;;;19.06;55.18;99456.03;4938061;28;102721;-59
2022/07/17 00:48:10;;;;;;;4.30;3.42;;;;;;;18.77;56.65;99454.44;4939347;28;102972;-59
2022/07/17 00:50:41;;;;;;;4.70;3.42;;;;;;;18.65;57.07;99451.06;4938210;28;103473;-59
2022/07/17 00:53:10;;;;;;;4.75;3.47;;;;;;;18.52;57.78;99459.41;4937710;28;102650;-59
2022/07/17 00:55:40;;;;;;;4.27;3.87;;;;;;;18.04;59.44;99455.00;4920782;28;104192;-59
2022/07/17 00:58:21;;;;;;;4.57;4.00;;;;;;;18.19;59.21;99453.63;4938055;28;103275;-59
2022/07/17 01:00:50;;;;;;;3.70;3.40;;;;;;;18.47;57.42;99458.09;4938629;28;103200;-59
2022/07/17 01:03:25;;;;;;;3.97;3.47;;;;;;;18.61;56.77;99455.00;4936419;28;102932;-59
2022/07/17 01:05:53;;;;;;;3.60;3.30;;;;;;;18.56;57.61;99451.94;4920792;28;102777;-59
2022/07/17 01:08:23;;;;;;;6.07;4.30;;;;;;;18.53;57.27;99457.56;4936197;28;103940;-60
2022/07/17 01:10:51;;;;;;;4.40;3.88;;;;;;;18.42;58.09;99460.34;4938919;28;103233;-60
2022/07/17 01:13:19;;;;;;;3.15;2.85;;;;;;;18.53;56.85;99454.88;4922119;28;102609;-59
2022/07/17 01:15:50;;;;;;;3.65;3.33;;;;;;;18.59;56.77;99459.66;4938431;28;104049;-60
2022/07/17 01:18:18;;;;;;;5.07;4.03;;;;;;;18.51;57.37;99459.53;4937334;28;104049;-59
2022/07/17 01:20:48;;;;;;;3.90;3.50;;;;;;;18.52;57.01;99461.25;4938152;28;103514;-60
2022/07/17 01:23:20;;;;;;;4.60;4.07;;;;;;;18.44;58.21;99463.75;4937525;28;102621;-59
2022/07/17 01:25:49;;;;;;;3.95;3.60;;;;;;;18.42;57.77;99461.19;4938851;28;102715;-59
2022/07/17 01:28:17;;;;;;;6.50;4.47;;;;;;;18.29;59.21;99459.81;4937969;28;104061;-59
2022/07/17 01:30:50;;;;;;;5.20;4.70;;;;;;;18.14;59.80;99466.56;4938445;28;103072;-59
2022/07/17 01:33:20;;;;;;;7.00;5.25;;;;;;;18.06;60.41;99458.38;4938335;28;103887;-59
2022/07/17 01:35:50;;;;;;;7.25;6.53;;;;;;;17.94;60.53;99465.69;4918902;28;103188;-59
2022/07/17 01:38:20;;;;;;;8.70;5.77;;;;;;;18.21;58.51;99459.66;4938513;28;103458;-59
2022/07/17 01:40:48;;;;;;;8.45;6.28;;;;;;;17.92;59.97;99465.00;4937798;28;103033;-60
2022/07/17 01:43:16;;;;;;;9.57;6.10;;;;;;;17.69;60.99;99471.56;4937810;28;102658;-59
2022/07/17 01:45:44;;;;;;;7.13;5.70;;;;;;;17.84;60.17;99471.03;4937817;28;103986;-60
2022/07/17 01:48:12;;;;;;;6.05;4.60;;;;;;;18.03;58.88;99470.22;4935905;28;103713;-60
2022/07/17 01:50:40;;;;;;;6.22;4.30;;;;;;;18.22;57.70;99470.22;4938512;28;103447;-60
2022/07/17 01:53:08;;;;;;;6.45;4.88;;;;;;;17.98;59.04;99476.97;4937355;28;102748;-59
2022/07/17 01:55:39;;;;;;;6.43;5.65;;;;;;;17.23;63.16;99477.44;4937752;28;103255;-59
2022/07/17 01:58:07;;;;;;;6.60;5.25;;;;;;;17.33;62.63;99472.97;4935807;28;104065;-60
2022/07/17 02:00:35;;;;;;;5.90;4.90;;;;;;;17.34;62.46;99469.31;4937156;28;103306;-60
2022/07/17 02:03:03;;;;;;;5.03;4.45;;;;;;;17.43;62.08;99476.53;4933139;28;102855;-59
2022/07/17 02:05:31;;;;;;;4.87;3.63;;;;;;;17.72;59.97;99469.47;4932367;28;102897;-60
2022/07/17 02:07:59;;;;;;;4.07;3.33;;;;;;;17.90;59.28;99470.50;4936027;28;103280;-60
2022/07/17 02:10:27;;;;;;;4.18;3.80;;;;;;;17.94;59.23;99461.19;4936297;28;103227;-59
2022/07/17 02:12:59;;;;;;;3.83;3.53;;;;;;;17.95;59.44;99459.38;4937424;28;103044;-59
2022/07/17 02:15:27;;;;;;;5.40;4.90;;;;;;;17.62;61.38;99457.91;4937721;28;102731;-60
2022/07/17 02:17:55;;;;;;;4.75;4.32;;;;;;;17.47;62.29;99464.56;4937093;28;104109;-59
2022/07/17 02:20:24;;;;;;;4.20;3.80;;;;;;;17.60;60.93;99462.53;4936532;28;103232;-59
2022/07/17 02:22:52;;;;;;;4.73;4.23;;;;;;;17.73;59.86;99463.16;4919160;28;102952;-59
2022/07/17 02:25:20;;;;;;;6.93;4.20;;;;;;;17.50;61.20;99461.63;4936806;28;102992;-60
2022/07/17 02:27:49;;;;;;;7.10;4.63;;;;;;;16.84;63.18;99462.19;4936404;28;104052;-60
2022/07/17 02:30:19;;;;;;;6.10;5.03;;;;;;;15.87;67.81;99459.72;4937568;28;103721;-59
2022/07/17 02:32:47;;;;;;;6.18;5.20;;;;;;;15.56;68.16;99456.03;4937408;28;102696;-59
2022/07/17 02:35:15;;;;;;;5.28;4.32;;;;;;;15.74;68.58;99456.38;4937067;28;102612;-59
2022/07/17 02:37:45;;;;;;;5.22;4.70;;;;;;;16.39;65.48;99457.09;4936423;28;103321;-59
2022/07/17 02:40:13;;;;;;;5.57;5.00;;;;;;;16.02;67.09;99463.81;4937303;28;103214;-59
2022/07/17 02:42:41;;;;;;;5.35;4.88;;;;;;;15.74;67.37;99464.38;4935203;28;103786;-59
2022/07/17 02:45:10;;;;;;;5.77;5.17;;;;;;;15.34;69.42;99461.38;4936116;28;102958;-59
2022/07/17 02:47:40;;;;;;;5.40;4.30;;;;;;;16.10;66.54;99454.19;4936100;28;103298;-59
2022/07/17 02:50:10;;;;;;;4.82;4.22;;;;;;;16.57;64.22;99455.56;4935182;28;103293;-59
2022/07/17 02:52:38;;;;;;;6.50;4.68;;;;;;;16.66;62.78;99444.13;4936056;28;102760;-59
2022/07/17 02:55:07;;;;;;;4.80;4.30;;;;;;;16.44;65.41;99444.22;4936485;28;102717;-59
2022/07/17 02:57:35;;;;;;;5.95;4.60;;;;;;;16.13;66.49;99442.44;4936531;28;103928;-60
2022/07/17 03:00:05;;;;;;;4.82;4.40;;;;;;;16.39;65.53;99451.78;4934590;28;104010;-59
2022/07/17 03:02:33;;;;;;;4.88;4.47;;;;;;;16.59;64.09;99450.94;4936108;28;102773;-59
2022/07/17 03:05:03;;;;;;;4.57;3.50;;;;;;;16.72;63.10;99454.28;4936363;28;103999;-58
2022/07/17 03:07:30;;;;;;;5.35;3.95;;;;;;;16.81;62.24;99452.63;4936231;28;103213;-58
2022/07/17 03:09:58;;;;;;;5.53;4.70;;;;;;;16.58;64.27;99451.94;4936117;28;103243;-58
2022/07/17 03:12:26;;;;;;;5.00;4.47;;;;;;;16.50;64.70;99449.03;4935341;28;102805;-58
2022/07/17 03:14:54;;;;;;;4.75;4.30;;;;;;;16.55;63.73;99446.00;4936436;28;102657;-58
2022/07/17 03:17:24;;;;;;;4.00;3.70;;;;;;;16.71;63.01;99449.03;4916310;28;103058;-59
2022/07/17 03:19:53;;;;;;;4.73;4.33;;;;;;;16.56;64.00;99448.53;4918630;28;103411;-59
2022/07/17 03:22:22;;;;;;;5.73;4.80;;;;;;;16.35;64.99;99444.13;4936067;28;102778;-60
2022/07/17 03:24:50;;;;;;;6.35;5.13;;;;;;;16.23;65.85;99441.53;4936828;28;102639;-59
2022/07/17 03:27:18;;;;;;;4.63;4.23;;;;;;;16.24;65.99;99437.03;4935922;28;104333;-59
2022/07/17 03:29:46;;;;;;;5.70;4.43;;;;;;;16.10;66.16;99445.34;4936911;28;103538;-59
2022/07/17 03:32:17;;;;;;;4.77;4.37;;;;;;;16.06;66.58;99449.22;4936430;28;102694;-59
2022/07/17 03:34:45;;;;;;;5.13;4.70;;;;;;;15.79;67.27;99446.19;4934510;28;102632;-59
2022/07/17 03:37:13;;;;;;;4.55;4.15;;;;;;;15.97;66.84;99455.34;4936252;28;103357;-59
2022/07/17 03:39:42;;;;;;;5.18;4.50;;;;;;;15.70;67.04;99455.78;4935178;28;103319;-59
2022/07/17 03:42:10;;;;;;;5.35;4.85;;;;;;;15.50;68.78;99454.72;4936425;28;103048;-59
2022/07/17 03:44:38;;;;;;;6.50;5.30;;;;;;;15.05;70.04;99453.88;4935762;28;102810;-59
2022/07/17 03:47:06;;;;;;;4.10;3.70;;;;;;;15.53;68.89;99457.13;4939069;28;104006;-59
2022/07/17 03:49:34;;;;;;;5.25;4.75;;;;;;;15.58;68.29;99451.44;4935060;28;103224;-59
2022/07/17 03:52:02;;;;;;;7.60;4.87;;;;;;;15.33;70.03;99452.53;4936528;28;102896;-59
2022/07/17 03:54:30;;;;;;;4.40;4.00;;;;;;;15.83;67.38;99453.78;4919588;28;103105;-58
2022/07/17 03:57:00;;;;;;;3.95;3.63;;;;;;;16.13;65.49;99458.44;4936189;28;103280;-58
2022/07/17 03:59:28;;;;;;;3.50;3.20;;;;;;;16.29;64.44;99455.31;4936639;28;103217;-58
2022/07/17 04:01:56;;;;;;;3.65;3.35;;;;;;;16.39;63.84;99456.25;4916339;28;102729;-58
2022/07/17 04:04:24;;;;;;;4.70;4.20;;;;;;;16.31;64.75;99464.06;4936942;28;103002;-58
2022/07/17 04:06:52;;;;;;;3.50;3.20;;;;;;;16.41;63.77;99464.97;4934678;28;104188;-59
2022/07/17 04:09:22;;;;;;;3.60;3.17;;;;;;;16.51;63.45;99465.88;4936209;28;103201;-59
2022/07/17 04:11:50;;;;;;;4.15;3.53;;;;;;;16.54;63.29;99463.81;4939085;28;102602;-58
2022/07/17 04:14:19;;;;;;;4.82;4.35;;;;;;;16.52;63.55;99471.09;4939888;28;104133;-59
2022/07/17 04:16:47;;;;;;;4.85;4.40;;;;;;;16.52;63.27;99468.41;4938585;28;103323;-59
2022/07/17 04:19:15;;;;;;;3.92;3.63;;;;;;;16.56;63.47;99464.53;4939399;28;103371;-59
2022/07/17 04:21:43;;;;;;;5.65;4.13;;;;;;;16.61;63.42;99470.34;4940194;28;103151;-59
2022/07/17 04:24:13;;;;;;;4.43;4.03;;;;;;;16.65;63.14;99473.56;4939542;28;102612;-59
2022/07/17 04:26:43;;;;;;;3.75;3.45;;;;;;;16.73;62.59;99474.63;4939121;28;103263;-59
2022/07/17 04:29:12;;;;;;;5.20;4.80;;;;;;;16.65;64.22;99471.75;4939653;28;103022;-59
2022/07/17 04:31:41;;;;;;;4.47;3.85;;;;;;;16.58;64.63;99470.59;4939403;28;102681;-59
2022/07/17 04:34:09;;;;;;;3.50;3.20;;;;;;;16.78;62.43;99476.91;4938159;28;102911;-60
2022/07/17 04:36:37;;;;;;;5.05;4.03;;;;;;;16.87;63.08;99472.59;4922843;28;103868;-59
2022/07/17 04:39:05;;;;;;;5.07;4.18;;;;;;;16.96;62.55;99467.31;4936068;28;103398;-59
2022/07/17 04:41:35;;;;;;;4.60;4.20;;;;;;;16.96;63.56;99482.47;4938999;28;102659;-59
2022/07/17 04:44:03;;;;;;;4.60;4.20;;;;;;;16.86;64.97;99482.44;4939289;28;102846;-59
2022/07/17 04:46:31;;;;;;;4.90;4.50;;;;;;;16.88;64.95;99482.28;4936203;28;103243;-59
2022/07/17 04:49:00;;;;;;;5.70;5.15;;;;;;;16.82;65.47;99481.00;4940779;28;103273;-60
2022/07/17 04:51:29;;;;;;;6.30;5.70;;;;;;;16.10;68.54;99477.34;4937781;28;102750;-59
2022/07/17 04:53:57;;;;;;;6.20;5.60;;;;;;;15.99;69.15;99474.72;4939870;28;102707;-59
2022/07/17 04:56:25;;;;;;;6.03;5.50;;;;;;;16.14;69.27;99478.78;4938021;28;104464;-60
2022/07/17 04:58:53;;;;;;;8.73;5.85;;;;;;;16.36;68.62;99475.19;4938316;28;103077;-59
2022/07/17 05:01:21;;;;;;;6.10;5.60;;;;;;;16.40;68.16;99485.44;4937791;28;102642;-59
2022/07/17 05:03:49;;;;;;;3.90;3.50;;;;;;;16.93;65.33;99477.41;4938215;28;102850;-59
2022/07/17 05:06:18;;;;;;;3.78;3.47;;;;;;;17.25;63.63;99484.31;4923587;28;104159;-59
2022/07/17 05:08:46;;;;;;;4.32;3.65;;;;;;;17.39;64.29;99480.44;4939631;28;103206;-59
2022/07/17 05:11:14;;;;;;;4.25;3.85;;;;;;;17.52;63.71;99482.84;4939563;28;102716;-60
2022/07/17 05:13:42;;;;;;;4.10;3.70;;;;;;;17.62;63.34;99481.97;4932389;28;104023;-60
2022/07/17 05:16:10;;;;;;;5.15;4.50;;;;;;;17.71;63.37;99489.13;4933039;28;104129;-59
2022/07/17 05:18:38;;;;;;;4.93;4.47;;;;;;;17.81;62.97;99492.69;4933106;28;103250;-60
2022/07/17 05:21:06;;;;;;;4.18;3.72;;;;;;;17.89;62.89;99478.63;4932308;28;102781;-60
2022/07/17 05:23:35;;;;;;;4.32;4.00;;;;;;;17.99;62.18;99481.34;4938180;28;103774;-60
2022/07/17 05:26:03;;;;;;;4.07;3.78;;;;;;;18.06;62.56;99485.13;4936856;28;103360;-59
2022/07/17 05:28:31;;;;;;;4.00;3.70;;;;;;;18.13;62.04;99478.25;4921385;28;103013;-60
2022/07/17 05:31:05;;;;;;;6.32;5.20;;;;;;;18.04;62.43;99481.75;4937292;28;102735;-59
2022/07/17 05:33:33;;;;;;;6.18;5.57;;;;;;;18.11;62.59;99482.88;4938880;28;102647;-60
2022/07/17 05:36:01;;;;;;;5.97;5.35;;;;;;;18.21;62.65;99484.59;4936460;28;104491;-59
2022/07/17 05:38:33;;;;;;;4.90;4.50;;;;;;;18.10;62.38;99483.88;4913145;28;104189;-60
2022/07/17 05:41:03;;;;;;;4.38;3.97;;;;;;;18.46;61.50;99483.19;4929327;28;104365;-60
2022/07/17 05:43:31;;;;;;;7.63;5.57;;;;;;;18.33;62.20;99485.31;4929236;28;103640;-60
2022/07/17 05:45:59;;;;;;;6.18;5.57;;;;;;;18.44;61.75;99479.81;4929854;28;103343;-60
2022/07/17 05:48:28;;;;;;;6.35;5.75;;;;;;;18.05;63.08;99489.63;4929630;28;103994;-60
2022/07/17 05:50:56;;;;;;;7.20;5.70;;;;;;;18.37;62.00;99478.66;4928607;28;102741;-59
2022/07/17 05:53:24;;;;;;;7.03;6.30;;;;;;;18.04;63.23;99481.75;4937005;28;102842;-60
2022/07/17 05:55:52;;;;;;;8.40;6.35;;;;;;;17.64;65.01;99489.81;4945208;28;103251;-63
2022/07/17 05:58:22;;;;;;;8.60;6.65;;;;;;;17.83;63.71;99496.06;4929825;28;103253;-61
2022/07/17 06:00:50;;;;;;;7.10;6.40;;;;;;;17.76;63.01;99488.75;4943242;28;102811;-61
2022/07/17 06:03:18;;;;;;;6.90;6.20;;;;;;;17.99;63.09;99494.69;4933463;28;103835;-61
2022/07/17 06:05:45;;;;;;;6.60;5.90;;;;;;;18.09;61.94;99492.88;4930999;28;104309;-61
2022/07/17 06:08:14;;;;;;;6.20;5.63;;;;;;;18.02;62.15;99495.25;4929700;28;103273;-61
2022/07/17 06:10:42;;;;;;;6.70;5.67;;;;;;;18.09;62.33;99501.75;4929137;28;102921;-60
2022/07/17 06:13:10;;;;;;;5.87;5.20;;;;;;;18.06;62.50;99501.16;4933087;28;104697;-61
2022/07/17 06:15:39;;;;;;;5.73;5.10;;;;;;;18.23;61.80;99503.16;4931317;28;103512;-61
2022/07/17 06:18:08;;;;;;;5.72;4.45;;;;;;;18.53;61.26;99495.03;4932260;28;103820;-61
2022/07/17 06:20:36;;;;;;;4.25;3.50;;;;;;;19.01;58.56;99487.75;4932662;28;102676;-61
2022/07/17 06:23:05;;;;;;;5.05;4.32;;;;;;;18.66;59.00;99494.75;4930715;28;102834;-60
2022/07/17 06:25:33;;;;;;;5.65;4.50;;;;;;;19.04;58.87;99495.50;4932512;28;103302;-61
2022/07/17 06:28:01;;;;;;;4.37;3.93;;;;;;;18.79;59.08;99496.13;4937902;28;103359;-61
2022/07/17 06:30:29;;;;;;;5.25;4.05;;;;;;;18.71;57.64;99498.69;4934038;28;103345;-58
2022/07/17 06:32:58;;;;;;;4.45;3.50;;;;;;;18.79;57.75;99506.84;4936540;28;102775;-58
2022/07/17 06:35:26;;;;;;;5.20;3.88;;;;;;;19.16;55.93;99495.34;4936934;28;103262;-58
2022/07/17 06:37:54;;;;;;;2.85;2.63;;;;;;;19.72;54.73;99495.25;4932198;28;103385;-58
2022/07/17 06:40:22;;;;;;;3.60;3.25;;;;;;;20.10;54.05;99501.22;4929581;28;102807;-57
2022/07/17 06:42:50;;;;;;;4.63;3.63;;;;;;;19.99;54.12;99504.13;4933028;28;103228;-58
2022/07/17 06:45:18;;;;;;;2.97;2.67;;;;;;;20.38;52.64;99509.25;4914674;28;104186;-58
2022/07/17 06:47:46;;;;;;;3.40;2.65;;;;;;;20.66;51.69;99506.31;4940889;28;103207;-58
2022/07/17 06:50:15;;;;;;;3.05;2.75;;;;;;;20.41;51.61;99508.94;4932251;28;102678;-61
2022/07/17 06:52:44;;;;;;;3.50;3.08;;;;;;;20.66;51.18;99509.00;4931665;28;104839;-61
2022/07/17 06:55:20;;;;;;;3.03;2.80;;;;;;;20.02;52.84;99513.69;4923920;28;103016;-61
2022/07/17 06:57:48;;;;;;;3.20;2.88;;;;;;;20.48;52.25;99515.38;4932533;28;103234;-61
2022/07/17 07:00:18;;;;;;;2.97;2.50;;;;;;;21.08;50.94;99514.53;4935992;28;102862;-61
2022/07/17 07:02:46;;;;;;;2.90;2.60;;;;;;;21.17;50.50;99513.59;4916664;28;103875;-61
2022/07/17 07:05:15;;;;;;;3.00;2.50;;;;;;;20.95;49.44;99507.88;4930135;28;103213;-61
2022/07/17 07:07:43;;;;;;;2.92;1.90;;;;;;;21.41;49.62;99512.91;4929023;28;104256;-61
2022/07/17 07:10:11;;;;;;;2.43;2.23;;;;;;;21.62;49.09;99512.50;4936680;28;102824;-61
2022/07/17 07:12:39;;;;;;;2.45;2.13;;;;;;;21.98;48.63;99515.88;4943856;28;102801;-61
2022/07/17 07:15:08;;;;;;;3.53;2.60;;;;;;;21.88;47.10;99521.38;4932010;28;103296;-61
2022/07/17 07:17:41;;;;;;;2.43;2.23;;;;;;;21.98;47.30;99519.38;4934617;28;103248;-61
2022/07/17 07:20:10;;;;;;;2.17;1.90;;;;;;;22.45;46.71;99512.44;4931833;28;103070;-58
2022/07/17 07:22:39;;;;;;;2.75;2.25;;;;;;;22.32;45.90;99516.59;4911933;28;103003;-59
2022/07/17 07:25:08;;;;;;;3.65;2.15;;;;;;;22.52;45.35;99512.59;4932444;28;104125;-59
2022/07/17 07:27:36;;;;;;;2.78;2.00;;;;;;;22.53;45.91;99517.84;4936222;28;103197;-59
2022/07/17 07:30:05;;;;;;;2.87;2.20;;;;;;;22.88;45.15;99513.13;4930824;28;102732;-59
2022/07/17 07:32:33;;;;;;;3.17;2.40;;;;;;;21.89;46.92;99520.38;4935249;28;102635;-59
2022/07/17 07:35:00;;;;;;;3.27;2.50;;;;;;;22.06;46.61;99514.06;4933123;28;104190;-59
2022/07/17 07:37:28;;;;;;;4.53;2.77;;;;;;;22.77;45.28;99505.41;4931459;28;103192;-59
2022/07/17 07:39:59;;;;;;;4.57;2.30;;;;;;;22.75;45.38;99507.44;4934522;28;102832;-59
2022/07/17 07:42:27;;;;;;;2.47;2.28;;;;;;;22.65;45.54;99507.59;4931457;28;103044;-62
2022/07/17 07:44:55;;;;;;;2.80;2.30;;;;;;;22.74;45.56;99511.13;4932839;28;103025;-62
2022/07/17 07:47:23;;;;;;;2.72;2.03;;;;;;;22.38;45.63;99510.56;4931682;28;103467;-62
2022/07/17 07:49:51;;;;;;;2.42;2.05;;;;;;;22.72;45.35;99502.38;4935337;28;102715;-62
2022/07/17 07:52:19;;;;;;;2.97;2.10;;;;;;;23.97;43.79;99506.94;4928575;28;102839;-62
2022/07/17 07:54:49;;;;;;;3.30;2.13;;;;;;;24.61;42.28;99505.75;4934602;28;103273;-62
2022/07/17 07:57:18;;;;;;;2.67;1.90;;;;;;;24.59;41.96;99509.66;4913137;28;103242;-62
2022/07/17 07:59:46;;;;;;;2.20;2.03;;;;;;;25.07;42.08;99516.50;4920926;28;102788;-59
2022/07/17 08:02:14;;;;;;;2.35;2.15;;;;;;;24.38;41.09;99510.28;4931335;28;103681;-59
2022/07/17 08:04:42;;;;;;;2.70;2.00;;;;;;;23.71;42.32;99516.34;4929640;28;103348;-59
2022/07/17 08:07:10;;;;;;;3.03;2.00;;;;;;;24.03;41.61;99513.50;4940548;28;103193;-59
2022/07/17 08:09:38;;;;;;;3.00;2.10;;;;;;;25.05;40.69;99515.84;4929423;28;102793;-59
2022/07/17 08:12:06;;;;;;;3.90;2.03;;;;;;;24.76;40.52;99519.28;4930420;28;103966;-62
2022/07/17 08:14:56;;;;;;;4.23;2.03;;;;;;;24.53;40.97;99516.59;4934720;28;104095;-64
2022/07/17 08:17:24;;;;;;;2.10;1.83;;;;;;;24.82;40.65;99513.19;4930219;28;103240;-63
2022/07/17 08:19:52;;;;;;;4.15;1.95;;;;;;;26.24;40.03;99516.53;4928911;28;102814;-62
2022/07/17 08:22:20;;;;;;;3.00;1.73;;;;;;;27.03;38.81;99508.13;4929896;28;102749;-62
2022/07/17 08:25:08;;;;;;;2.40;1.90;;;;;;;27.13;37.73;99506.97;4933461;28;104371;-63
2022/07/17 08:27:37;;;;;;;2.25;2.00;;;;;;;27.13;37.81;99504.25;4944509;28;103181;-62
2022/07/17 08:30:09;;;;;;;2.90;1.95;;;;;;;26.03;38.82;99508.31;4930192;28;102718;-60
2022/07/17 08:32:38;;;;;;;2.30;2.10;;;;;;;26.68;38.65;99514.47;4913089;28;104959;-60
2022/07/17 08:35:07;;;;;;;2.25;2.05;;;;;;;28.03;38.76;99505.88;4933235;28;103345;-60
2022/07/17 08:37:44;;;;;;;3.33;2.00;;;;;;;27.98;37.42;99505.63;4932636;28;103305;-64
2022/07/17 08:40:20;;;;;;;2.85;1.90;;;;;;;28.09;36.17;99499.63;4929239;28;103038;-63
2022/07/17 08:42:48;;;;;;;2.13;1.93;;;;;;;28.86;36.48;99501.88;4913195;28;102881;-63
2022/07/17 08:45:17;;;;;;;3.23;2.10;;;;;;;29.36;37.79;99496.88;4932197;28;104227;-63
2022/07/17 08:47:46;;;;;;;3.25;2.28;;;;;;;28.80;35.47;99505.44;4929840;28;103212;-63
2022/07/17 08:50:14;;;;;;;3.15;2.10;;;;;;;27.45;36.87;99503.69;4906700;28;102743;-64
2022/07/17 08:52:43;;;;;;;4.60;2.13;;;;;;;28.12;37.97;99503.81;4929349;28;102954;-63
2022/07/17 08:55:14;;;;;;;2.30;2.00;;;;;;;29.01;37.28;99502.53;4941990;28;104009;-63
2022/07/17 08:57:45;;;;;;;2.07;1.83;;;;;;;29.97;34.79;99500.06;4936592;28;103264;-60
2022/07/17 09:00:16;;;;;;;3.03;2.00;;;;;;;30.10;34.84;99506.28;4931533;28;102860;-60
2022/07/17 09:02:57;;;;;;;3.50;2.00;;;;;;;29.79;34.00;99504.28;4930730;28;104018;-61
2022/07/17 09:05:27;;;;;;;2.60;1.90;;;;;;;30.06;35.46;99499.59;4915771;28;103601;-60
2022/07/17 09:07:58;;;;;;;3.42;2.05;;;;;;;30.05;32.65;99503.38;4933376;28;103464;-61
2022/07/17 09:10:34;;;;;;;2.90;2.03;;;;;;;30.27;33.94;99501.16;4933048;28;102772;-60
2022/07/17 09:13:13;;;;;;;2.20;1.80;;;;;;;30.51;33.10;99502.31;4932837;28;102754;-60
2022/07/17 09:15:42;;;;;;;3.20;1.97;;;;;;;30.11;33.14;99497.06;4931794;28;103398;-60
2022/07/17 09:18:15;;;;;;;1.80;1.70;;;;;;;29.21;34.67;99500.63;4933367;28;103516;-60
2022/07/17 09:20:48;;;;;;;3.33;2.13;;;;;;;28.97;33.51;99498.53;4931135;28;102846;-61
2022/07/17 09:23:17;;;;;;;2.63;1.80;;;;;;;30.54;34.39;99496.44;4931231;28;104199;-63
2022/07/17 09:25:48;;;;;;;2.00;1.80;;;;;;;29.89;32.89;99504.69;4934327;28;103297;-64
2022/07/17 09:28:17;;;;;;;3.20;1.70;;;;;;;29.16;32.95;99503.16;4932459;28;103308;-63
2022/07/17 09:30:49;;;;;;;3.53;1.80;;;;;;;28.91;32.54;99504.84;4911865;28;102968;-63
2022/07/17 09:33:22;;;;;;;1.92;1.73;;;;;;;28.60;34.38;99513.53;4933133;28;102991;-64
2022/07/17 09:35:52;;;;;;;3.10;1.60;;;;;;;29.91;34.23;99507.19;4932933;28;104219;-63
2022/07/17 09:38:30;;;;;;;4.15;1.80;;;;;;;30.46;31.72;99493.97;4929271;28;103652;-63
2022/07/17 09:41:12;;;;;;;1.52;1.42;;;;;;;30.41;31.11;99497.34;4932666;28;103226;-63
2022/07/17 09:43:46;;;;;;;1.95;1.80;;;;;;;30.29;31.45;99483.53;4933138;28;102670;-64
2022/07/17 09:46:17;;;;;;;2.53;1.40;;;;;;;31.77;32.70;99479.16;4931478;28;103319;-63
2022/07/17 09:48:49;;;;;;;2.72;1.50;;;;;;;29.16;31.31;99484.09;4928667;28;103514;-64
2022/07/17 09:51:21;;;;;;;2.63;1.30;;;;;;;28.97;30.95;99482.22;4931144;28;103062;-64
2022/07/17 09:53:51;;;;;;;2.65;1.60;;;;;;;29.54;31.93;99488.84;4932894;28;103007;-64
2022/07/17 09:56:21;;;;;;;3.50;1.63;;;;;;;31.43;30.63;99480.56;4931131;28;103497;-64
2022/07/17 09:58:52;;;;;;;2.35;1.70;;;;;;;30.03;30.84;99482.84;4931671;28;103426;-63
2022/07/17 10:01:21;;;;;;;2.20;1.60;;;;;;;28.88;33.49;99491.66;4933727;28;103775;-64
2022/07/17 10:03:53;;;;;;;2.20;1.60;;;;;;;29.96;30.11;99485.59;4932656;28;102984;-64
2022/07/17 10:06:22;;;;;;;2.80;1.65;;;;;;;30.05;31.25;99481.56;4932474;28;104477;-64
2022/07/17 10:08:51;;;;;;;2.72;1.40;;;;;;;30.43;30.29;99487.88;4938208;28;103443;-63
2022/07/17 10:11:25;;;;;;;3.38;1.70;;;;;;;31.10;28.99;99480.91;4938944;28;102684;-64
2022/07/17 10:13:55;;;;;;;2.70;1.30;;;;;;;29.93;29.74;99475.13;4916320;28;102887;-63
2022/07/17 10:16:25;;;;;;;2.35;1.38;;;;;;;31.00;30.68;99464.19;4941175;28;103334;-63
2022/07/17 10:18:57;;;;;;;2.20;1.57;;;;;;;31.57;30.26;99465.75;4934091;28;103318;-63
2022/07/17 10:21:29;;;;;;;3.35;1.70;;;;;;;30.02;32.04;99471.13;4944879;28;103669;-64
2022/07/17 10:24:10;;;;;;;1.67;1.58;;;;;;;29.85;29.30;99473.50;4932295;28;103817;-63
2022/07/17 10:26:44;;;;;;;2.85;1.40;;;;;;;31.52;29.58;99460.94;4930075;28;103311;-64
2022/07/17 10:29:31;;;;;;;2.80;1.35;;;;;;;32.05;28.42;99463.91;4929953;28;103235;-64
2022/07/17 10:32:01;;;;;;;2.28;1.42;;;;;;;32.08;28.92;99468.06;4926889;28;102942;-63
2022/07/17 10:34:45;;;;;;;2.30;1.20;;;;;;;32.36;28.16;99460.09;4947586;28;102964;-64
2022/07/17 10:37:22;;;;;;;1.70;1.23;;;;;;;31.99;26.22;99462.06;4934857;28;103612;-64
2022/07/17 10:40:05;;;;;;;1.63;1.30;;;;;;;30.79;28.35;99453.66;4934297;28;103213;-63
2022/07/17 10:42:45;;;;;;;1.42;1.17;;;;;;;30.12;27.18;99455.13;4931710;28;103340;-64
2022/07/17 10:45:15;;;;;;;2.10;1.50;;;;;;;30.63;27.71;99459.63;4932793;28;104124;-64
2022/07/17 10:47:46;;;;;;;1.88;1.20;;;;;;;30.63;26.62;99443.28;4932128;28;103388;-64
2022/07/17 10:50:16;;;;;;;2.20;1.40;;;;;;;30.97;26.48;99440.06;4914009;28;103198;-65
2022/07/17 10:52:45;;;;;;;3.65;1.63;;;;;;;30.29;29.33;99444.53;4930504;28;102996;-64
2022/07/17 10:55:21;;;;;;;2.60;2.20;;;;;;;29.24;29.34;99443.09;4933137;28;102887;-64
2022/07/17 10:57:51;;;;;;;2.33;1.33;;;;;;;29.94;28.34;99441.41;4929896;28;103360;-64
2022/07/17 11:00:19;;;;;;;1.50;1.40;;;;;;;31.82;27.70;99438.31;4931563;28;103299;-64
2022/07/17 11:02:47;;;;;;;2.60;1.40;;;;;;;32.39;27.34;99436.94;4927395;28;103614;-64
2022/07/17 11:05:17;;;;;;;3.03;1.40;;;;;;;32.89;26.82;99437.41;4911085;28;102838;-63
2022/07/17 11:07:58;;;;;;;2.17;1.50;;;;;;;32.58;26.29;99441.28;4932876;28;103405;-64
2022/07/17 11:10:27;;;;;;;1.60;1.30;;;;;;;30.14;26.84;99441.28;4921565;28;103241;-64
2022/07/17 11:13:07;;;;;;;2.83;1.23;;;;;;;29.39;27.96;99450.19;4929080;28;102668;-64
2022/07/17 11:15:40;;;;;;;1.98;1.40;;;;;;;30.63;27.69;99444.13;4930662;28;102817;-64
2022/07/17 11:18:13;;;;;;;1.40;1.30;;;;;;;31.63;27.62;99437.53;4930809;28;103329;-64
2022/07/17 11:20:50;;;;;;;2.08;1.60;;;;;;;32.19;26.19;99431.75;4928714;28;103182;-64
2022/07/17 11:23:18;;;;;;;2.20;1.50;;;;;;;31.98;26.33;99429.47;4930453;28;103758;-64
2022/07/17 11:25:58;;;;;;;1.40;1.30;;;;;;;32.87;26.45;99425.88;4929184;28;102898;-64
2022/07/17 11:28:37;;;;;;;1.85;1.33;;;;;;;32.69;25.82;99422.16;4928650;28;103365;-64
2022/07/17 11:31:17;;;;;;;3.17;1.58;;;;;;;32.06;26.99;99421.00;4930993;28;103262;-64
2022/07/17 11:33:50;;;;;;;1.50;1.38;;;;;;;32.77;24.68;99420.13;4918551;28;102878;-64
2022/07/17 11:36:25;;;;;;;1.37;1.27;;;;;;;32.26;25.79;99413.34;4913039;28;102856;-64